createdAt,value
2023-03-27T00:02:26.042Z,5.35
2023-03-27T00:04:54.691Z,3.78
2023-03-27T00:07:22.779Z,2.30
2023-03-27T00:09:49.888Z,4.30
2023-03-27T00:12:17.503Z,3.17
2023-03-27T00:14:45.848Z,4.85
2023-03-27T00:17:13.497Z,2.05
2023-03-27T00:19:40.619Z,2.97
2023-03-27T00:22:08.004Z,3.13
2023-03-27T00:24:36.773Z,3.22
2023-03-27T00:27:04.125Z,2.30
2023-03-27T00:29:31.145Z,2.35
2023-03-27T00:31:58.510Z,2.15
2023-03-27T00:34:25.649Z,2.38
2023-03-27T00:36:53.771Z,3.03
2023-03-27T00:39:20.821Z,2.33
2023-03-27T00:41:49.301Z,3.13
2023-03-27T00:44:23.927Z,2.90
2023-03-27T00:46:54.551Z,2.90
2023-03-27T00:49:23.701Z,3.03
2023-03-27T00:51:53.142Z,5.03
2023-03-27T00:54:26.699Z,4.18
2023-03-27T00:57:00.081Z,3.67
2023-03-27T00:59:31.838Z,4.57
2023-03-27T01:02:01.765Z,5.22
2023-03-27T01:07:00.835Z,3.75
2023-03-27T01:09:27.838Z,4.43
2023-03-27T01:11:59.200Z,2.28
2023-03-27T01:17:35.094Z,4.80
2023-03-27T01:20:41.089Z,3.13
2023-03-27T01:23:59.530Z,4.70
2023-03-27T01:26:42.358Z,4.32
2023-03-27T01:29:48.432Z,3.67
2023-03-27T01:32:42.893Z,7.32
2023-03-27T01:35:39.840Z,5.70
2023-03-27T01:38:35.564Z,3.22
2023-03-27T01:41:11.642Z,4.65
2023-03-27T01:43:52.068Z,3.90
2023-03-27T01:46:31.686Z,3.53
2023-03-27T01:49:13.101Z,5.88
2023-03-27T01:51:46.214Z,4.90
2023-03-27T01:54:26.140Z,3.42
2023-03-27T01:57:22.375Z,2.33
2023-03-27T02:00:19.386Z,1.50
2023-03-27T02:03:02.401Z,1.45
2023-03-27T02:05:34.805Z,2.53
2023-03-27T02:08:16.526Z,2.22
2023-03-27T02:10:49.858Z,2.05
2023-03-27T02:13:27.305Z,1.17
2023-03-27T02:15:56.582Z,1.60
2023-03-27T02:18:32.432Z,6.93
2023-03-27T02:20:59.814Z,1.55
2023-03-27T02:23:30.915Z,3.55
2023-03-27T02:25:58.463Z,5.90
2023-03-27T02:28:27.966Z,3.08
2023-03-27T02:31:33.450Z,4.72
2023-03-27T02:34:29.160Z,4.03
2023-03-27T02:37:06.295Z,3.95
2023-03-27T02:40:20.097Z,3.10
2023-03-27T02:42:56.172Z,3.22
2023-03-27T02:45:35.798Z,3.72
2023-03-27T02:48:10.057Z,6.72
2023-03-27T02:50:43.968Z,4.22
2023-03-27T02:53:17.434Z,7.60
2023-03-27T02:56:00.545Z,6.80
2023-03-27T02:58:34.343Z,4.57
2023-03-27T03:01:16.642Z,6.95
2023-03-27T03:04:26.403Z,4.43
2023-03-27T03:07:16.134Z,3.40
2023-03-27T03:09:44.615Z,2.83
2023-03-27T03:12:12.230Z,4.57
2023-03-27T03:14:45.924Z,9.63
2023-03-27T03:17:14.628Z,4.50
2023-03-27T03:19:42.052Z,7.00
2023-03-27T03:22:09.970Z,4.90
2023-03-27T03:24:41.766Z,8.13
2023-03-27T03:27:10.810Z,7.10
2023-03-27T03:29:50.583Z,10.70
2023-03-27T03:32:26.432Z,15.82
2023-03-27T03:34:53.834Z,6.30
2023-03-27T03:37:21.322Z,7.10
2023-03-27T03:39:48.386Z,4.53
2023-03-27T03:42:22.781Z,11.00
2023-03-27T03:44:52.230Z,40.10
2023-03-27T03:47:21.605Z,8.75
2023-03-27T03:49:49.366Z,8.98
2023-03-27T03:52:16.867Z,10.80
2023-03-27T03:54:46.230Z,6.45
2023-03-27T03:57:14.323Z,6.28
2023-03-27T03:59:42.713Z,10.57
2023-03-27T04:02:31.464Z,4.88
2023-03-27T04:05:11.847Z,5.20
2023-03-27T04:07:41.069Z,3.47
2023-03-27T04:10:27.783Z,5.05
2023-03-27T04:12:56.234Z,4.93
2023-03-27T04:15:27.931Z,7.95
2023-03-27T04:18:32.677Z,6.68
2023-03-27T04:21:03.055Z,5.15
2023-03-27T04:23:30.960Z,6.82
2023-03-27T04:26:00.718Z,5.30
2023-03-27T04:28:42.481Z,15.60
2023-03-27T04:31:34.531Z,9.52
2023-03-27T04:34:33.986Z,7.30
2023-03-27T04:37:09.062Z,7.47
2023-03-27T04:39:42.988Z,14.77
2023-03-27T04:42:10.817Z,9.32
2023-03-27T04:44:39.061Z,3.63
2023-03-27T04:47:08.989Z,3.33
2023-03-27T04:49:40.657Z,3.10
2023-03-27T04:52:18.713Z,3.05
2023-03-27T04:54:46.652Z,4.33
2023-03-27T04:57:15.747Z,2.10
2023-03-27T04:59:43.235Z,3.25
2023-03-27T05:02:43.006Z,1.98
2023-03-27T05:05:18.139Z,1.92
2023-03-27T05:07:47.865Z,8.10
2023-03-27T05:10:21.716Z,14.20
2023-03-27T05:12:51.900Z,8.30
2023-03-27T05:15:21.615Z,13.82
2023-03-27T05:17:55.907Z,30.33
2023-03-27T05:20:26.511Z,31.80
2023-03-27T05:22:54.784Z,26.77
2023-03-27T05:25:26.681Z,15.02
2023-03-27T05:27:55.050Z,18.13
2023-03-27T05:30:26.901Z,19.70
2023-03-27T05:33:14.049Z,12.65
2023-03-27T05:35:48.205Z,7.33
2023-03-27T05:38:16.238Z,6.28
2023-03-27T05:41:12.922Z,3.72
2023-03-27T05:43:47.120Z,5.40
2023-03-27T05:46:20.783Z,6.55
2023-03-27T05:48:59.317Z,6.85
2023-03-27T05:51:27.660Z,5.50
2023-03-27T05:53:55.080Z,5.63
2023-03-27T05:56:27.145Z,6.13
2023-03-27T05:58:58.146Z,4.03
2023-03-27T06:01:27.855Z,6.88
2023-03-27T06:03:57.449Z,3.47
2023-03-27T06:06:29.681Z,5.57
2023-03-27T06:08:59.428Z,4.95
2023-03-27T06:11:28.261Z,21.35
2023-03-27T06:13:58.474Z,5.88
2023-03-27T06:16:38.402Z,4.47
2023-03-27T06:19:31.591Z,6.35
2023-03-27T06:21:58.942Z,8.25
2023-03-27T06:24:26.377Z,10.73
2023-03-27T06:26:54.108Z,3.85
2023-03-27T06:29:21.488Z,3.78
2023-03-27T06:31:51.675Z,9.70
2023-03-27T06:34:39.170Z,9.73
2023-03-27T06:37:26.568Z,7.13
2023-03-27T06:39:54.834Z,12.00
2023-03-27T06:42:22.325Z,13.05
2023-03-27T06:44:59.477Z,6.85
2023-03-27T06:47:54.666Z,7.18
2023-03-27T06:50:34.366Z,7.05
2023-03-27T06:53:05.866Z,7.70
2023-03-27T06:55:40.960Z,4.97
2023-03-27T06:58:08.680Z,5.38
2023-03-27T07:00:37.407Z,5.15
2023-03-27T07:03:21.934Z,4.57
2023-03-27T07:05:58.094Z,3.17
2023-03-27T07:08:29.536Z,6.32
2023-03-27T07:13:41.166Z,3.88
2023-03-27T07:16:14.480Z,7.55
2023-03-27T07:18:42.546Z,4.40
2023-03-27T07:21:10.146Z,9.95
2023-03-27T07:23:38.370Z,7.85
2023-03-27T07:26:08.904Z,7.13
2023-03-27T07:28:58.487Z,3.42
2023-03-27T07:31:40.285Z,2.35
2023-03-27T07:34:15.771Z,5.38
2023-03-27T07:37:01.044Z,10.45
2023-03-27T07:39:28.812Z,9.13
2023-03-27T07:41:56.119Z,7.57
2023-03-27T07:44:29.245Z,1.50
2023-03-27T07:47:01.409Z,1.40
2023-03-27T07:49:39.934Z,2.72
2023-03-27T07:52:11.197Z,9.52
2023-03-27T07:54:48.928Z,4.80
2023-03-27T07:57:18.615Z,13.02
2023-03-27T07:59:52.757Z,2.97
2023-03-27T08:02:30.659Z,13.70
2023-03-27T08:04:58.382Z,5.68
2023-03-27T08:07:25.849Z,2.05
2023-03-27T08:09:57.559Z,6.97
2023-03-27T08:12:25.405Z,3.20
2023-03-27T08:14:59.038Z,5.88
2023-03-27T08:17:31.041Z,3.70
2023-03-27T08:19:59.536Z,1.67
2023-03-27T08:22:26.657Z,4.70
2023-03-27T08:25:12.668Z,2.22
2023-03-27T08:27:41.021Z,2.70
2023-03-27T08:30:09.328Z,7.35
2023-03-27T08:32:39.895Z,2.05
2023-03-27T08:35:10.193Z,5.32
2023-03-27T08:37:37.680Z,1.42
2023-03-27T08:40:38.299Z,2.58
2023-03-27T08:43:23.813Z,3.40
2023-03-27T08:48:30.456Z,2.83
2023-03-27T08:51:04.450Z,3.10
2023-03-27T08:54:10.094Z,1.60
2023-03-27T08:56:37.599Z,11.13
2023-03-27T08:59:11.676Z,5.05
2023-03-27T09:01:46.809Z,8.15
2023-03-27T09:04:29.040Z,3.55
2023-03-27T09:07:11.750Z,3.20
2023-03-27T09:10:18.380Z,3.22
2023-03-27T09:12:50.584Z,3.33
2023-03-27T09:15:30.344Z,5.07
2023-03-27T09:20:45.031Z,2.58
2023-03-27T09:23:22.932Z,3.53
2023-03-27T09:26:16.588Z,4.07
2023-03-27T09:29:20.326Z,4.75
2023-03-27T09:31:56.309Z,3.85
2023-03-27T09:34:34.705Z,3.50
2023-03-27T09:37:02.809Z,4.30
2023-03-27T09:39:38.748Z,3.53
2023-03-27T09:42:26.504Z,5.72
2023-03-27T09:44:57.334Z,2.53
2023-03-27T09:47:43.951Z,1.65
2023-03-27T09:50:20.731Z,1.85
2023-03-27T09:53:25.875Z,2.15
2023-03-27T09:56:14.430Z,2.63
2023-03-27T09:58:49.368Z,3.35
2023-03-27T10:01:28.409Z,1.75
2023-03-27T10:04:01.243Z,4.05
2023-03-27T10:06:56.994Z,2.10
2023-03-27T10:09:40.999Z,3.58
2023-03-27T10:12:18.281Z,2.40
2023-03-27T10:14:52.401Z,3.20
2023-03-27T10:17:36.757Z,2.78
2023-03-27T10:20:18.884Z,2.25
2023-03-27T10:22:57.100Z,1.50
2023-03-27T10:25:38.049Z,1.45
2023-03-27T10:28:34.398Z,2.70
2023-03-27T10:31:32.377Z,2.38
2023-03-27T10:34:32.697Z,3.95
2023-03-27T10:37:30.156Z,1.42
2023-03-27T10:40:35.094Z,0.57
2023-03-27T10:43:30.391Z,3.03
2023-03-27T10:46:05.838Z,4.38
2023-03-27T10:48:49.001Z,1.45
2023-03-27T10:51:46.165Z,3.25
2023-03-27T10:54:23.681Z,2.28
2023-03-27T10:57:02.459Z,7.03
2023-03-27T10:59:41.763Z,2.63
2023-03-27T11:02:28.541Z,3.53
2023-03-27T11:05:02.421Z,3.80
2023-03-27T11:07:37.956Z,3.28
2023-03-27T11:10:27.074Z,3.13
2023-03-27T11:13:04.127Z,2.75
2023-03-27T11:15:41.317Z,4.28
2023-03-27T11:18:39.076Z,2.65
2023-03-27T11:21:13.008Z,7.25
2023-03-27T11:23:58.536Z,4.23
2023-03-27T11:27:14.449Z,4.93
2023-03-27T11:29:53.884Z,7.10
2023-03-27T11:32:44.897Z,3.65
2023-03-27T11:35:17.691Z,4.07
2023-03-27T11:38:18.548Z,6.18
2023-03-27T11:40:49.439Z,6.13
2023-03-27T11:43:20.131Z,6.03
2023-03-27T11:46:06.873Z,4.75
2023-03-27T11:49:09.553Z,5.78
2023-03-27T11:51:37.530Z,5.72
2023-03-27T11:54:05.499Z,5.00
2023-03-27T11:57:06.269Z,2.10
2023-03-27T12:00:11.705Z,2.10
2023-03-27T12:03:28.616Z,3.40
2023-03-27T12:06:15.661Z,3.30
2023-03-27T12:08:59.098Z,1.30
2023-03-27T12:11:30.731Z,3.60
2023-03-27T12:14:28.253Z,4.22
2023-03-27T12:17:27.630Z,3.05
2023-03-27T12:20:33.683Z,4.65
2023-03-27T12:23:23.716Z,12.85
2023-03-27T12:26:42.509Z,6.47
2023-03-27T12:29:57.735Z,7.95
2023-03-27T12:32:32.139Z,2.17
2023-03-27T12:35:06.500Z,8.85
2023-03-27T12:37:43.907Z,4.43
2023-03-27T12:40:37.468Z,3.03
2023-03-27T12:43:11.302Z,6.63
2023-03-27T12:45:50.943Z,5.55
2023-03-27T12:48:21.629Z,10.32
2023-03-27T12:50:55.993Z,5.95
2023-03-27T12:53:30.464Z,10.50
2023-03-27T12:56:10.381Z,6.95
2023-03-27T12:58:40.169Z,7.43
2023-03-27T13:01:13.058Z,3.20
2023-03-27T13:04:43.576Z,1.15
2023-03-27T13:07:25.128Z,4.28
2023-03-27T13:10:08.301Z,5.25
2023-03-27T13:12:42.949Z,3.80
2023-03-27T13:15:28.071Z,3.15
2023-03-27T13:18:01.239Z,1.10
2023-03-27T13:21:19.104Z,5.47
2023-03-27T13:23:59.546Z,3.13
2023-03-27T13:27:15.348Z,2.85
2023-03-27T13:29:49.096Z,2.45
2023-03-27T13:32:38.190Z,2.78
2023-03-27T13:35:21.638Z,0.63
2023-03-27T13:37:49.150Z,2.58
2023-03-27T13:40:27.401Z,1.90
2023-03-27T13:43:21.740Z,0.98
2023-03-27T13:45:57.719Z,5.22
2023-03-27T13:48:50.245Z,5.57
2023-03-27T13:51:26.857Z,3.20
2023-03-27T13:54:50.481Z,2.90
2023-03-27T13:57:31.389Z,9.48
2023-03-27T14:00:27.664Z,6.78
2023-03-27T14:03:23.986Z,9.02
2023-03-27T14:07:12.459Z,7.38
2023-03-27T14:10:18.911Z,9.90
2023-03-27T14:13:17.297Z,5.35
2023-03-27T14:16:31.602Z,5.53
2023-03-27T14:22:00.935Z,6.65
2023-03-27T14:24:46.840Z,5.10
2023-03-27T14:27:35.060Z,4.05
2023-03-27T14:30:20.324Z,7.68
2023-03-27T14:32:56.613Z,4.82
2023-03-27T14:35:32.942Z,10.00
2023-03-27T14:38:31.616Z,7.28
2023-03-27T14:41:01.770Z,3.72
2023-03-27T14:43:54.095Z,2.22
2023-03-27T14:46:24.309Z,5.43
2023-03-27T14:48:58.135Z,5.32
2023-03-27T14:51:37.250Z,2.58
2023-03-27T14:54:13.937Z,7.10
2023-03-27T14:56:51.084Z,6.55
2023-03-27T14:59:43.090Z,11.50
2023-03-27T15:02:26.647Z,33.38
2023-03-27T15:05:04.843Z,1.73
2023-03-27T15:07:36.447Z,4.72
2023-03-27T15:10:38.229Z,3.40
2023-03-27T15:13:36.703Z,34.65
2023-03-27T15:16:14.135Z,8.60
2023-03-27T15:18:58.685Z,7.88
2023-03-27T15:21:44.089Z,41.72
2023-03-27T15:24:21.781Z,33.40
2023-03-27T15:26:51.984Z,64.22
2023-03-27T15:29:29.134Z,26.40
2023-03-27T15:31:59.781Z,59.15
2023-03-27T15:34:36.467Z,43.33
2023-03-27T15:37:10.115Z,17.23
2023-03-27T15:40:26.866Z,29.48
2023-03-27T15:43:02.129Z,20.40
2023-03-27T15:45:40.930Z,30.83
2023-03-27T15:48:23.523Z,27.25
2023-03-27T15:51:00.491Z,7.30
2023-03-27T15:53:38.641Z,6.18
2023-03-27T15:56:37.057Z,14.68
2023-03-27T15:59:07.001Z,14.73
2023-03-27T16:01:40.517Z,39.58
2023-03-27T16:04:11.925Z,20.17
2023-03-27T16:06:42.610Z,23.48
2023-03-27T16:09:33.509Z,64.88
2023-03-27T16:12:01.229Z,82.32
2023-03-27T16:14:48.058Z,206.52
2023-03-27T16:17:19.810Z,50.10
2023-03-27T16:19:57.735Z,25.83
2023-03-27T16:22:28.290Z,35.28
2023-03-27T16:24:56.938Z,15.32
2023-03-27T16:27:33.951Z,9.18
2023-03-27T16:30:01.404Z,10.68
2023-03-27T16:32:29.060Z,7.60
2023-03-27T16:34:56.509Z,4.88
2023-03-27T16:37:25.808Z,5.10
2023-03-27T16:39:54.507Z,6.28
2023-03-27T16:42:26.005Z,6.75
2023-03-27T16:44:54.119Z,8.63
2023-03-27T16:47:24.770Z,12.75
2023-03-27T16:50:08.009Z,6.60
2023-03-27T16:52:38.228Z,31.88
2023-03-27T16:55:07.526Z,7.47
2023-03-27T16:57:36.493Z,5.22
2023-03-27T17:00:05.850Z,9.93
2023-03-27T17:05:04.329Z,3.53
2023-03-27T17:07:32.357Z,3.42
2023-03-27T17:10:00.075Z,2.30
2023-03-27T17:12:32.340Z,2.55
2023-03-27T17:15:00.004Z,2.42
2023-03-27T17:17:30.658Z,3.30
2023-03-27T17:19:58.330Z,6.90
2023-03-27T17:22:26.866Z,4.20
2023-03-27T17:24:57.217Z,7.10
2023-03-27T17:27:26.790Z,4.32
2023-03-27T17:29:56.377Z,5.00
2023-03-27T17:34:53.554Z,3.75
2023-03-27T17:37:22.473Z,6.28
2023-03-27T17:39:50.480Z,4.82
2023-03-27T17:42:18.525Z,7.40
2023-03-27T17:44:47.174Z,5.22
2023-03-27T17:47:14.925Z,9.50
2023-03-27T17:49:43.492Z,11.88
2023-03-27T17:52:13.560Z,15.25
2023-03-27T17:54:41.698Z,14.27
2023-03-27T17:57:10.095Z,13.90
2023-03-27T17:59:38.609Z,11.15
2023-03-27T18:02:07.436Z,13.15
2023-03-27T18:04:35.204Z,4.93
2023-03-27T18:07:02.841Z,6.55
2023-03-27T18:12:01.233Z,7.20
2023-03-27T18:14:28.861Z,11.30
2023-03-27T18:16:57.067Z,8.80
2023-03-27T18:19:25.543Z,5.88
2023-03-27T18:21:54.323Z,9.93
2023-03-27T18:24:22.657Z,10.13
2023-03-27T18:26:50.931Z,16.90
2023-03-27T18:29:18.582Z,15.77
2023-03-27T18:31:47.990Z,19.13
2023-03-27T18:34:15.957Z,19.17
2023-03-27T18:36:50.877Z,27.55
2023-03-27T18:39:19.893Z,27.95
2023-03-27T18:41:48.002Z,47.85
2023-03-27T18:44:15.647Z,74.15
2023-03-27T18:46:43.666Z,117.45
2023-03-27T18:49:23.705Z,116.32
2023-03-27T18:51:53.075Z,119.78
2023-03-27T18:54:20.595Z,87.95
2023-03-27T18:56:48.864Z,93.97
2023-03-27T18:59:16.442Z,132.25
2023-03-27T19:01:44.303Z,146.02
2023-03-27T19:04:11.746Z,61.15
2023-03-27T19:06:39.517Z,59.25
2023-03-27T19:09:07.628Z,48.67
2023-03-27T19:11:37.158Z,27.10
2023-03-27T19:14:07.740Z,26.95
2023-03-27T19:16:44.760Z,23.65
2023-03-27T19:19:32.192Z,29.92
2023-03-27T19:22:19.030Z,29.85
2023-03-27T19:25:00.798Z,27.10
2023-03-27T19:27:38.716Z,30.30
2023-03-27T19:30:08.913Z,24.63
2023-03-27T19:32:39.208Z,29.50
2023-03-27T19:35:07.386Z,28.08
2023-03-27T19:37:35.891Z,53.80
2023-03-27T19:40:05.433Z,33.42
2023-03-27T19:42:33.535Z,21.90
2023-03-27T19:45:01.620Z,26.00
2023-03-27T19:47:29.901Z,34.53
2023-03-27T19:49:58.340Z,60.53
2023-03-27T19:53:05.366Z,58.33
2023-03-27T19:55:33.500Z,36.83
2023-03-27T19:58:01.159Z,25.17
2023-03-27T20:00:30.925Z,24.90
2023-03-27T20:02:59.897Z,26.48
2023-03-27T20:05:29.614Z,19.23
2023-03-27T20:07:57.499Z,20.73
2023-03-27T20:10:27.202Z,21.55
2023-03-27T20:15:22.750Z,66.78
2023-03-27T20:17:50.721Z,108.72
2023-03-27T20:20:20.150Z,71.47
2023-03-27T20:25:25.801Z,30.98
2023-03-27T20:27:53.472Z,28.27
2023-03-27T20:30:21.463Z,25.48
2023-03-27T20:32:51.072Z,22.08
2023-03-27T20:35:24.418Z,25.25
2023-03-27T20:37:58.138Z,23.27
2023-03-27T20:40:28.409Z,28.52
2023-03-27T20:43:03.596Z,20.75
2023-03-27T20:45:31.612Z,20.77
2023-03-27T20:48:03.245Z,22.45
2023-03-27T20:50:31.679Z,27.38
2023-03-27T20:52:59.155Z,26.60
2023-03-27T20:58:00.727Z,47.95
2023-03-27T21:00:28.031Z,36.78
2023-03-27T21:02:55.700Z,42.90
2023-03-27T21:05:23.008Z,34.90
2023-03-27T21:07:52.586Z,33.83
2023-03-27T21:10:24.625Z,32.08
2023-03-27T21:12:54.176Z,26.45
2023-03-27T21:15:21.440Z,25.90
2023-03-27T21:17:49.539Z,25.40
2023-03-27T21:20:17.006Z,25.08
2023-03-27T21:22:45.643Z,25.63
2023-03-27T21:25:12.965Z,23.48
2023-03-27T21:27:40.589Z,24.05
2023-03-27T21:30:09.650Z,19.95
2023-03-27T21:32:37.214Z,22.67
2023-03-27T21:35:04.560Z,21.83
2023-03-27T21:37:32.450Z,20.67
2023-03-27T21:39:59.887Z,26.42
2023-03-27T21:42:27.296Z,24.08
2023-03-27T21:44:57.036Z,23.65
2023-03-27T21:47:31.715Z,24.73
2023-03-27T21:52:32.128Z,22.67
2023-03-27T21:55:02.901Z,28.75
2023-03-27T21:57:31.226Z,34.42
2023-03-27T21:59:58.374Z,40.03
2023-03-27T22:02:25.939Z,25.35
2023-03-27T22:04:53.298Z,29.88
2023-03-27T22:07:20.894Z,26.30
2023-03-27T22:09:48.108Z,16.88
2023-03-27T22:12:16.800Z,22.17
2023-03-27T22:14:44.025Z,17.48
2023-03-27T22:17:11.416Z,16.60
2023-03-27T22:19:38.520Z,16.40
2023-03-27T22:22:06.065Z,16.02
2023-03-27T22:24:33.513Z,19.80
2023-03-27T22:27:01.081Z,20.05
2023-03-27T22:29:28.247Z,18.73
2023-03-27T22:31:55.681Z,18.77
2023-03-27T22:34:22.983Z,14.65
2023-03-27T22:36:50.309Z,15.48
2023-03-27T22:39:17.524Z,19.98
2023-03-27T22:41:45.062Z,20.83
2023-03-27T22:44:12.349Z,16.15
2023-03-27T22:46:39.884Z,12.02
2023-03-27T22:49:06.952Z,13.32
2023-03-27T22:51:34.482Z,14.38
2023-03-27T22:54:01.919Z,11.30
2023-03-27T22:56:29.525Z,15.95
2023-03-27T22:58:57.724Z,17.83
2023-03-27T23:01:25.136Z,16.52
2023-03-27T23:03:53.649Z,19.88
2023-03-27T23:06:23.761Z,19.40
2023-03-27T23:08:51.460Z,23.48
2023-03-27T23:11:19.653Z,23.17
2023-03-27T23:13:47.449Z,18.23
2023-03-27T23:16:14.969Z,21.35
2023-03-27T23:18:41.987Z,22.20
2023-03-27T23:21:12.010Z,27.15
2023-03-27T23:23:40.538Z,30.30
2023-03-27T23:26:09.115Z,21.10
2023-03-27T23:28:39.027Z,19.92
2023-03-27T23:31:10.379Z,24.95
2023-03-27T23:33:40.242Z,34.08
2023-03-27T23:36:11.381Z,29.67
2023-03-27T23:38:39.232Z,24.90
2023-03-27T23:41:07.239Z,22.15
2023-03-27T23:43:34.893Z,23.15
2023-03-27T23:46:04.071Z,20.73
2023-03-27T23:48:31.759Z,21.48
2023-03-27T23:50:59.099Z,45.58
2023-03-27T23:53:27.887Z,34.85
2023-03-27T23:55:56.774Z,29.35
2023-03-27T23:58:25.338Z,32.50
